createdAt,value
2018-03-03T12:07:23.563Z,58.7
2018-03-03T12:08:24.965Z,58.7
2018-03-03T12:09:46.926Z,58.3
2018-03-03T12:10:48.326Z,58.9
2018-03-03T12:12:10.281Z,59.0
2018-03-03T12:13:11.681Z,59.1
2018-03-03T12:14:33.391Z,59.5
2018-03-03T12:15:34.792Z,59.3
2018-03-03T12:16:56.798Z,59.5
2018-03-03T12:17:58.195Z,59.2
2018-03-03T12:19:20.158Z,59.8
2018-03-03T12:20:21.560Z,59.8
2018-03-03T12:21:43.522Z,59.5
2018-03-03T12:22:44.923Z,59.5
2018-03-03T12:24:06.886Z,59.7
2018-03-03T12:25:08.273Z,60.3
2018-03-03T12:26:29.998Z,59.4
2018-03-03T12:27:31.390Z,59.6
2018-03-03T12:28:53.403Z,59.7
2018-03-03T12:29:54.797Z,59.2
2018-03-03T12:31:16.755Z,59.4
2018-03-03T12:32:18.163Z,59.8
2018-03-03T12:33:39.886Z,59.8
2018-03-03T12:34:41.283Z,59.9
2018-03-03T12:36:03.277Z,59.4
2018-03-03T12:37:04.674Z,59.0
2018-03-03T12:38:26.637Z,59.2
2018-03-03T12:39:28.034Z,59.3
2018-03-03T12:40:49.996Z,59.2
2018-03-03T12:41:51.399Z,58.6
2018-03-03T12:43:13.359Z,58.9
2018-03-03T12:44:14.756Z,58.5
2018-03-03T12:45:36.726Z,58.6
2018-03-03T12:46:38.122Z,57.8
2018-03-03T12:47:39.523Z,57.6
2018-03-03T12:48:41.012Z,58.1
2018-03-03T12:49:42.412Z,58.0
2018-03-03T12:50:43.814Z,57.9
2018-03-03T12:51:45.333Z,58.0
2018-03-03T12:52:46.735Z,57.9
2018-03-03T12:53:48.146Z,57.8
2018-03-03T12:54:49.656Z,58.2
2018-03-03T12:55:51.055Z,58.2
2018-03-03T12:56:52.900Z,58.9
2018-03-03T12:57:54.390Z,59.0
2018-03-03T12:58:55.786Z,59.0
2018-03-03T12:59:57.199Z,58.9
2018-03-03T13:00:58.714Z,58.4
2018-03-03T13:02:00.109Z,59.1
2018-03-03T13:03:01.514Z,59.4
2018-03-03T13:04:03.037Z,59.3
2018-03-03T13:05:04.432Z,59.4
2018-03-03T13:06:05.919Z,59.6
2018-03-03T13:07:07.323Z,59.9
2018-03-03T13:08:08.722Z,59.9
2018-03-03T13:09:10.250Z,60.8
2018-03-03T13:10:11.651Z,60.4
2018-03-03T13:11:13.052Z,60.9
2018-03-03T13:12:14.572Z,60.9
2018-03-03T13:13:15.978Z,61.0
2018-03-03T13:14:17.379Z,60.9
2018-03-03T13:15:18.877Z,61.0
2018-03-03T13:16:20.273Z,61.6
2018-03-03T13:17:21.686Z,61.7
2018-03-03T13:18:23.196Z,61.6
2018-03-03T13:19:24.595Z,61.8
2018-03-03T13:20:26.073Z,61.4
2018-03-03T13:21:27.485Z,62.0
2018-03-03T13:22:28.909Z,62.5
2018-03-03T13:23:30.399Z,62.1
2018-03-03T13:24:31.803Z,62.4
2018-03-03T13:25:33.202Z,62.7
2018-03-03T13:26:34.922Z,62.8
2018-03-03T13:27:36.321Z,62.9
2018-03-03T13:28:37.723Z,63.6
2018-03-03T13:29:39.243Z,63.4
2018-03-03T13:30:40.643Z,63.2
2018-03-03T13:31:42.046Z,63.7
2018-03-03T13:32:43.566Z,64.0
2018-03-03T13:33:44.968Z,63.3
2018-03-03T13:34:46.453Z,63.5
2018-03-03T13:35:47.852Z,63.1
2018-03-03T13:36:49.329Z,63.0
2018-03-03T13:37:50.727Z,64.0
2018-03-03T13:38:52.131Z,63.6
2018-03-03T13:39:53.647Z,63.2
2018-03-03T13:40:55.047Z,63.8
2018-03-03T13:41:56.449Z,63.7
2018-03-03T13:42:57.968Z,63.7
2018-03-03T13:43:59.367Z,63.9
2018-03-03T13:45:00.850Z,64.0
2018-03-03T13:46:02.258Z,64.0
2018-03-03T13:47:04.014Z,64.1
2018-03-03T13:48:05.415Z,64.1
2018-03-03T13:49:07.026Z,64.5
2018-03-03T13:50:08.421Z,64.6
2018-03-03T13:51:09.901Z,64.9
2018-03-03T13:52:11.303Z,64.8
2018-03-03T13:53:12.751Z,64.9
2018-03-03T13:54:14.227Z,64.7
2018-03-03T13:55:15.629Z,64.7
2018-03-03T13:56:17.047Z,64.6
2018-03-03T13:57:18.544Z,64.6
2018-03-03T13:58:19.945Z,64.8
2018-03-03T13:59:21.423Z,65.2
2018-03-03T14:00:22.827Z,65.4
2018-03-03T14:01:24.305Z,65.6
2018-03-03T14:02:25.709Z,65.5
2018-03-03T14:03:27.193Z,65.9
2018-03-03T14:04:28.984Z,65.6
2018-03-03T14:05:30.478Z,65.8
2018-03-03T14:06:31.875Z,66.2
2018-03-03T14:07:33.357Z,66.4
2018-03-03T14:08:34.763Z,65.9
2018-03-03T14:09:36.238Z,66.7
2018-03-03T14:10:37.641Z,66.9
2018-03-03T14:11:39.119Z,66.5
2018-03-03T14:12:40.522Z,66.7
2018-03-03T14:13:42.001Z,66.1
2018-03-03T14:14:43.400Z,66.1
2018-03-03T14:15:44.881Z,65.8
2018-03-03T14:16:46.286Z,66.2
2018-03-03T14:17:47.762Z,65.9
2018-03-03T14:18:49.167Z,66.2
2018-03-03T14:19:50.643Z,66.8
2018-03-03T14:20:52.042Z,66.3
2018-03-03T14:21:53.900Z,66.7
2018-03-03T14:22:55.339Z,66.6
2018-03-03T14:23:56.812Z,67.1
2018-03-03T14:24:58.225Z,67.1
2018-03-03T14:25:59.713Z,67.1
2018-03-03T14:27:01.107Z,67.5
2018-03-03T14:28:02.492Z,68.1
2018-03-03T14:29:04.017Z,68.1
2018-03-03T14:30:05.431Z,68.2
2018-03-03T14:31:06.825Z,68.2
2018-03-03T14:32:08.336Z,68.7
2018-03-03T14:33:09.742Z,69.1
2018-03-03T14:34:11.144Z,69.0
2018-03-03T14:35:12.660Z,69.8
2018-03-03T14:36:14.072Z,69.3
2018-03-03T14:37:15.469Z,69.9
2018-03-03T14:38:16.980Z,69.9
2018-03-03T14:39:18.387Z,70.5
2018-03-03T14:40:19.862Z,70.7
2018-03-03T14:41:21.262Z,70.9
2018-03-03T14:42:22.740Z,70.4
2018-03-03T14:43:24.142Z,70.9
2018-03-03T14:44:25.546Z,71.0
2018-03-03T14:45:27.062Z,71.4
2018-03-03T14:46:28.467Z,71.6
2018-03-03T14:47:29.874Z,71.4
2018-03-03T14:48:31.384Z,71.5
2018-03-03T14:49:32.792Z,71.5
2018-03-03T14:50:34.179Z,71.5
2018-03-03T14:51:35.704Z,71.5
2018-03-03T14:52:37.101Z,71.7
2018-03-03T14:53:38.502Z,71.9
2018-03-03T14:54:40.229Z,72.0
2018-03-03T14:55:41.628Z,72.1
2018-03-03T14:56:43.027Z,72.2
2018-03-03T14:57:44.553Z,72.2
2018-03-03T14:58:45.952Z,72.1
2018-03-03T14:59:47.490Z,72.1
2018-03-03T15:00:49.075Z,71.8
2018-03-03T15:01:50.475Z,72.1
2018-03-03T15:02:51.956Z,72.1
2018-03-03T15:03:53.357Z,72.1
2018-03-03T15:04:54.754Z,72.3
2018-03-03T15:05:56.276Z,72.3
2018-03-03T15:06:57.676Z,72.6
2018-03-03T15:07:59.079Z,72.6
2018-03-03T15:08:24.376Z,72.2
2018-03-03T15:09:25.773Z,72.7
2018-03-03T15:10:47.533Z,73.0
2018-03-03T15:11:48.931Z,72.6
2018-03-03T15:13:10.641Z,72.9
2018-03-03T15:14:12.067Z,72.2
2018-03-03T15:16:52.696Z,73.0
2018-03-03T15:17:54.095Z,72.8
2018-03-03T15:19:16.107Z,73.3
2018-03-03T15:20:17.489Z,72.8
2018-03-03T15:21:39.213Z,73.0
2018-03-03T15:22:40.619Z,72.8
2018-03-03T15:24:02.780Z,72.9
2018-03-03T15:25:04.177Z,73.3
2018-03-03T15:26:25.938Z,72.9
2018-03-03T15:27:27.340Z,72.8
2018-03-03T15:28:49.058Z,72.7
2018-03-03T15:29:50.453Z,72.8
2018-03-03T15:35:48.684Z,72.8
2018-03-03T15:36:50.093Z,72.9
2018-03-03T15:38:51.411Z,73.0
2018-03-03T15:39:52.813Z,72.7
2018-03-03T15:41:14.570Z,73.2
2018-03-03T15:42:15.962Z,73.0
2018-03-03T15:43:37.730Z,73.9
2018-03-03T15:44:39.126Z,73.9
2018-03-03T15:46:01.238Z,73.8
2018-03-03T15:47:02.644Z,73.7
2018-03-03T15:51:02.343Z,74.6
2018-03-03T15:52:03.739Z,74.9
2018-03-03T15:53:25.503Z,75.2
2018-03-03T15:54:26.903Z,74.8
2018-03-03T15:55:48.657Z,75.6
2018-03-03T15:56:50.054Z,75.6
2018-03-03T15:58:12.060Z,75.1
2018-03-03T15:59:13.449Z,75.3
2018-03-03T16:00:14.847Z,75.7
2018-03-03T16:01:16.308Z,76.0
2018-03-03T16:02:17.708Z,75.5
2018-03-03T16:03:19.278Z,76.4
2018-03-03T16:04:20.666Z,76.3
2018-03-03T16:05:22.302Z,76.0
2018-03-03T16:06:23.696Z,76.2
2018-03-03T16:07:25.174Z,76.5
2018-03-03T16:08:26.572Z,76.9
2018-03-03T16:09:28.039Z,77.0
2018-03-03T16:10:29.441Z,76.9
2018-03-03T16:11:30.948Z,76.5
2018-03-03T16:12:32.347Z,77.3
2018-03-03T16:13:33.800Z,77.4
2018-03-03T16:14:35.194Z,77.2
2018-03-03T16:15:36.686Z,77.8
2018-03-03T16:16:38.080Z,77.9
2018-03-03T16:17:39.566Z,78.1
2018-03-03T16:18:40.960Z,77.9
2018-03-03T16:19:42.441Z,78.1
2018-03-03T16:20:43.844Z,78.6
2018-03-03T16:21:45.325Z,78.1
2018-03-03T16:22:46.906Z,78.1
2018-03-03T16:23:48.412Z,78.2
2018-03-03T16:24:49.807Z,78.6
2018-03-03T16:25:51.211Z,78.5
2018-03-03T16:26:52.738Z,79.0
2018-03-03T16:27:54.139Z,79.2
2018-03-03T16:28:55.543Z,79.7
2018-03-03T16:29:57.050Z,79.6
2018-03-03T16:30:58.449Z,79.5
2018-03-03T16:31:59.934Z,79.5
2018-03-03T16:33:01.332Z,79.8
2018-03-03T16:34:02.829Z,79.8
2018-03-03T16:35:04.210Z,80.4
2018-03-03T16:36:05.693Z,80.7
2018-03-03T16:37:07.100Z,80.2
2018-03-03T16:38:08.574Z,80.3
2018-03-03T16:39:09.976Z,80.5
2018-03-03T16:40:11.380Z,80.2
2018-03-03T16:41:12.897Z,80.7
2018-03-03T16:42:14.296Z,81.1
2018-03-03T16:43:15.698Z,81.7
2018-03-03T16:44:17.222Z,81.1
2018-03-03T16:45:18.625Z,81.7
2018-03-03T16:46:20.027Z,81.5
2018-03-03T16:47:21.545Z,81.9
2018-03-03T16:48:22.939Z,81.6
2018-03-03T16:49:24.334Z,81.7
2018-03-03T16:50:25.859Z,81.7
2018-03-03T16:51:27.259Z,81.2
2018-03-03T16:52:28.764Z,82.1
2018-03-03T16:53:30.388Z,82.1
2018-03-03T16:54:31.786Z,81.7
2018-03-03T16:55:33.190Z,82.1
2018-03-03T16:56:34.706Z,82.5
2018-03-03T16:57:36.103Z,82.5
2018-03-03T16:58:37.585Z,82.5
2018-03-03T16:59:38.994Z,82.4
2018-03-03T17:00:40.381Z,83.1
2018-03-03T17:01:41.903Z,82.3
2018-03-03T17:02:43.303Z,82.7
2018-03-03T17:03:44.696Z,82.7
2018-03-03T17:04:46.232Z,83.2
2018-03-03T17:05:47.917Z,83.0
2018-03-03T17:07:41.353Z,82.9
